Time;durP1;ratioP1;P1;durP2;ratioP2;P2;SDS_P1;SDS_P2;PMS_P1;PMS_P2;Temp;Humidity;BMP_temperature;BMP_pressure;BME280_temperature;BME280_humidity;BME280_pressure;Samples;Min_cycle;Max_cycle;Signal;HPM_P1;HPM_P2
2024/01/27 00:01:32;;;;;;;6.53;2.95;;;;;;;;;;5048675;28;20302;-68
2024/01/27 00:03:58;;;;;;;2.97;1.95;;;;;;;;;;5048811;28;20212;-69
2024/01/27 00:06:26;;;;;;;3.53;2.50;;;;;;;;;;5060320;28;20208;-69
2024/01/27 00:08:52;;;;;;;4.25;2.28;;;;;;;;;;5052229;28;20232;-69
2024/01/27 00:11:18;;;;;;;3.85;2.47;;;;;;;;;;5050784;28;20205;-69
2024/01/27 00:13:45;;;;;;;3.70;2.08;;;;;;;;;;5051143;28;20208;-68
2024/01/27 00:16:11;;;;;;;2.42;2.17;;;;;;;;;;5049494;28;20775;-68
2024/01/27 00:18:37;;;;;;;2.65;2.25;;;;;;;;;;5049428;28;20656;-68
2024/01/27 00:21:04;;;;;;;3.33;2.25;;;;;;;;;;5049547;28;20258;-68
2024/01/27 00:23:32;;;;;;;5.50;2.42;;;;;;;;;;5049767;28;20201;-68
2024/01/27 00:25:58;;;;;;;2.40;2.20;;;;;;;;;;5049434;28;20569;-68
2024/01/27 00:28:24;;;;;;;4.85;2.00;;;;;;;;;;5049872;28;20209;-68
2024/01/27 00:30:51;;;;;;;2.00;1.85;;;;;;;;;;5051922;28;20204;-68
2024/01/27 00:33:17;;;;;;;2.40;2.13;;;;;;;;;;5051692;28;20205;-69
2024/01/27 00:35:43;;;;;;;2.25;2.03;;;;;;;;;;5051650;28;20766;-68
2024/01/27 00:38:09;;;;;;;3.40;2.25;;;;;;;;;;5051615;28;20721;-68
2024/01/27 00:40:37;;;;;;;4.65;2.05;;;;;;;;;;5051372;28;20227;-68
2024/01/27 00:43:04;;;;;;;3.38;2.40;;;;;;;;;;5051500;28;20275;-68
2024/01/27 00:45:30;;;;;;;3.92;2.30;;;;;;;;;;5051483;28;20274;-69
2024/01/27 00:47:56;;;;;;;6.18;2.83;;;;;;;;;;5051307;28;20193;-67
2024/01/27 00:50:22;;;;;;;3.08;2.38;;;;;;;;;;5051270;28;20278;-68
2024/01/27 00:52:49;;;;;;;5.45;2.38;;;;;;;;;;5051308;28;20201;-68
2024/01/27 00:55:15;;;;;;;6.88;3.17;;;;;;;;;;5051406;28;20201;-68
2024/01/27 00:57:43;;;;;;;4.18;2.50;;;;;;;;;;5051456;28;20224;-68
2024/01/27 01:00:10;;;;;;;2.70;2.33;;;;;;;;;;5051445;28;20205;-68
2024/01/27 01:02:37;;;;;;;4.15;2.15;;;;;;;;;;5055017;28;20197;-68
2024/01/27 01:05:05;;;;;;;2.45;1.92;;;;;;;;;;5071569;28;20205;-68
2024/01/27 01:07:31;;;;;;;1.80;1.70;;;;;;;;;;5072797;28;20228;-68
2024/01/27 01:09:57;;;;;;;2.75;2.33;;;;;;;;;;5074360;28;20200;-68
2024/01/27 01:12:25;;;;;;;5.65;2.00;;;;;;;;;;5074694;28;20574;-68
2024/01/27 01:14:53;;;;;;;3.92;2.40;;;;;;;;;;5075665;28;20585;-68
2024/01/27 01:17:19;;;;;;;4.13;2.15;;;;;;;;;;5074833;28;20296;-68
2024/01/27 01:19:45;;;;;;;3.60;2.30;;;;;;;;;;5074698;28;20196;-68
2024/01/27 01:22:11;;;;;;;3.30;2.50;;;;;;;;;;5074338;28;20211;-68
2024/01/27 01:24:38;;;;;;;3.67;2.28;;;;;;;;;;5074465;28;20254;-68
2024/01/27 01:27:05;;;;;;;4.10;2.50;;;;;;;;;;5074465;28;20212;-67
2024/01/27 01:29:32;;;;;;;4.30;2.10;;;;;;;;;;5074277;28;20601;-68
2024/01/27 01:32:01;;;;;;;3.30;2.40;;;;;;;;;;5074430;28;20228;-68
2024/01/27 01:34:27;;;;;;;3.70;2.00;;;;;;;;;;5074285;28;20750;-68
2024/01/27 01:36:54;;;;;;;2.22;1.95;;;;;;;;;;5074069;28;20620;-68
2024/01/27 01:39:20;;;;;;;3.58;1.80;;;;;;;;;;5073866;28;20660;-68
2024/01/27 01:41:46;;;;;;;3.80;1.92;;;;;;;;;;5074000;28;20669;-68
2024/01/27 01:44:13;;;;;;;3.97;2.20;;;;;;;;;;5073933;28;20679;-68
2024/01/27 01:46:39;;;;;;;4.15;2.35;;;;;;;;;;5074091;28;20642;-69
2024/01/27 01:49:06;;;;;;;1.98;1.80;;;;;;;;;;5074099;28;20204;-68
2024/01/27 01:51:33;;;;;;;1.80;1.70;;;;;;;;;;5073954;28;20253;-69
2024/01/27 01:53:59;;;;;;;6.55;2.67;;;;;;;;;;5074043;28;20208;-68
2024/01/27 01:56:26;;;;;;;2.28;1.65;;;;;;;;;;5073930;28;20277;-68
2024/01/27 01:58:52;;;;;;;5.45;1.80;;;;;;;;;;5073768;28;20319;-69
2024/01/27 02:01:21;;;;;;;3.55;2.05;;;;;;;;;;5073985;28;20282;-69
2024/01/27 02:03:52;;;;;;;6.93;2.67;;;;;;;;;;5073874;28;20197;-69
2024/01/27 02:06:19;;;;;;;3.60;2.08;;;;;;;;;;5073589;28;20229;-69
2024/01/27 02:08:46;;;;;;;5.05;1.90;;;;;;;;;;5073595;28;20197;-68
2024/01/27 02:11:12;;;;;;;2.80;1.90;;;;;;;;;;5073887;28;20205;-69
2024/01/27 02:13:38;;;;;;;3.85;1.80;;;;;;;;;;5073512;28;20237;-68
2024/01/27 02:16:05;;;;;;;2.38;1.85;;;;;;;;;;5073419;28;20271;-69
2024/01/27 02:18:31;;;;;;;3.38;2.17;;;;;;;;;;5072617;28;20268;-69
2024/01/27 02:20:57;;;;;;;3.60;1.88;;;;;;;;;;5073354;28;20623;-69
2024/01/27 02:23:25;;;;;;;2.20;1.67;;;;;;;;;;5073412;28;20208;-69
2024/01/27 02:25:52;;;;;;;2.90;2.00;;;;;;;;;;5073512;28;20266;-69
2024/01/27 02:28:19;;;;;;;3.15;1.77;;;;;;;;;;5073182;28;20341;-69
2024/01/27 02:30:45;;;;;;;2.05;1.83;;;;;;;;;;5073365;28;20259;-69
2024/01/27 02:33:11;;;;;;;2.15;1.75;;;;;;;;;;5073484;28;20253;-69
2024/01/27 02:35:37;;;;;;;4.93;1.95;;;;;;;;;;5073486;28;20224;-69
2024/01/27 02:38:04;;;;;;;3.47;2.00;;;;;;;;;;5073060;28;20600;-69
2024/01/27 02:40:30;;;;;;;2.47;1.85;;;;;;;;;;5073272;28;20200;-68
2024/01/27 02:42:58;;;;;;;4.68;1.98;;;;;;;;;;5072909;28;20258;-68
2024/01/27 02:45:24;;;;;;;2.10;1.85;;;;;;;;;;5072811;28;20712;-68
2024/01/27 02:47:50;;;;;;;2.40;2.20;;;;;;;;;;5072869;28;20250;-68
2024/01/27 02:50:16;;;;;;;2.17;1.83;;;;;;;;;;5072837;28;20264;-68
2024/01/27 02:52:43;;;;;;;5.65;2.67;;;;;;;;;;5072826;28;20250;-68
2024/01/27 02:55:09;;;;;;;4.40;2.17;;;;;;;;;;5078331;28;20204;-68
2024/01/27 02:57:35;;;;;;;4.28;2.80;;;;;;;;;;5072641;28;20220;-68
2024/01/27 03:00:03;;;;;;;6.40;2.75;;;;;;;;;;5072606;28;20200;-68
2024/01/27 03:02:29;;;;;;;4.10;2.38;;;;;;;;;;5072388;28;20200;-68
2024/01/27 03:04:56;;;;;;;3.53;2.33;;;;;;;;;;5072890;28;20200;-68
2024/01/27 03:07:22;;;;;;;5.53;2.72;;;;;;;;;;5072713;28;20220;-68
2024/01/27 03:09:48;;;;;;;2.78;2.45;;;;;;;;;;5072317;28;20206;-68
2024/01/27 03:12:15;;;;;;;4.80;2.88;;;;;;;;;;5072298;28;20204;-68
2024/01/27 03:14:41;;;;;;;5.15;2.78;;;;;;;;;;5072292;28;20230;-69
2024/01/27 03:17:09;;;;;;;4.18;3.13;;;;;;;;;;5072149;28;20243;-69
2024/01/27 03:19:35;;;;;;;5.10;2.78;;;;;;;;;;5072472;28;20196;-69
2024/01/27 03:22:01;;;;;;;5.50;3.10;;;;;;;;;;5072452;28;20197;-69
2024/01/27 03:24:28;;;;;;;4.25;2.95;;;;;;;;;;5072426;28;20201;-69
2024/01/27 03:26:54;;;;;;;6.18;2.90;;;;;;;;;;5072082;28;20638;-68
2024/01/27 03:29:20;;;;;;;3.13;2.45;;;;;;;;;;5072381;28;20680;-68
2024/01/27 03:31:46;;;;;;;5.22;2.83;;;;;;;;;;5071958;28;20661;-68
2024/01/27 03:34:14;;;;;;;5.20;2.72;;;;;;;;;;5072009;28;20665;-68
2024/01/27 03:36:41;;;;;;;5.85;2.45;;;;;;;;;;5072360;28;20323;-68
2024/01/27 03:39:08;;;;;;;4.00;2.90;;;;;;;;;;5071923;28;20573;-68
2024/01/27 03:41:34;;;;;;;2.85;2.70;;;;;;;;;;5072120;28;20295;-68
2024/01/27 03:44:01;;;;;;;2.28;2.15;;;;;;;;;;5072066;28;20207;-69
2024/01/27 03:46:27;;;;;;;5.35;2.50;;;;;;;;;;5072225;28;20224;-69
2024/01/27 03:48:53;;;;;;;2.85;2.40;;;;;;;;;;5072149;28;20192;-69
2024/01/27 03:51:21;;;;;;;2.90;2.65;;;;;;;;;;5072100;28;20203;-68
2024/01/27 03:53:47;;;;;;;6.43;2.78;;;;;;;;;;5071723;28;20209;-68
2024/01/27 03:56:13;;;;;;;2.90;2.60;;;;;;;;;;5071873;28;20268;-68
2024/01/27 03:58:40;;;;;;;5.80;3.50;;;;;;;;;;5071592;28;20302;-68
2024/01/27 04:01:06;;;;;;;3.15;2.90;;;;;;;;;;5072186;28;20580;-68
2024/01/27 04:03:32;;;;;;;4.63;2.58;;;;;;;;;;5072036;28;20656;-68
2024/01/27 04:05:59;;;;;;;8.75;3.03;;;;;;;;;;5072208;28;20220;-68
2024/01/27 04:08:26;;;;;;;4.38;2.83;;;;;;;;;;5071816;28;20287;-68
2024/01/27 04:10:52;;;;;;;6.20;2.70;;;;;;;;;;5071844;28;20258;-68
2024/01/27 04:13:19;;;;;;;5.40;2.88;;;;;;;;;;5071222;28;20216;-68
2024/01/27 04:15:45;;;;;;;2.58;2.30;;;;;;;;;;5071851;28;20221;-69
2024/01/27 04:18:11;;;;;;;3.28;2.58;;;;;;;;;;5071813;28;20227;-68
2024/01/27 04:20:38;;;;;;;5.68;3.08;;;;;;;;;;5071869;28;20267;-68
2024/01/27 04:23:04;;;;;;;3.83;2.55;;;;;;;;;;5071435;28;20204;-68
2024/01/27 04:25:32;;;;;;;3.17;2.78;;;;;;;;;;5071507;28;20270;-68
2024/01/27 04:27:58;;;;;;;3.90;2.38;;;;;;;;;;5071499;28;20201;-68
2024/01/27 04:30:24;;;;;;;4.28;2.60;;;;;;;;;;5071554;28;20200;-68
2024/01/27 04:32:51;;;;;;;9.95;2.90;;;;;;;;;;5071658;28;20205;-69
2024/01/27 04:35:18;;;;;;;3.97;2.70;;;;;;;;;;5071716;28;20212;-69
2024/01/27 04:37:45;;;;;;;3.58;3.28;;;;;;;;;;5071455;28;20205;-69
2024/01/27 04:40:11;;;;;;;3.03;2.75;;;;;;;;;;5071293;28;20228;-69
2024/01/27 04:42:39;;;;;;;4.65;2.85;;;;;;;;;;5073419;28;20226;-69
2024/01/27 04:45:06;;;;;;;3.13;2.88;;;;;;;;;;5075279;28;20207;-69
2024/01/27 04:47:32;;;;;;;6.78;3.38;;;;;;;;;;5075494;28;20207;-68
2024/01/27 04:49:58;;;;;;;6.25;3.10;;;;;;;;;;5075230;28;20254;-68
2024/01/27 04:52:25;;;;;;;6.40;3.15;;;;;;;;;;5075158;28;20209;-68
2024/01/27 04:54:52;;;;;;;5.85;3.10;;;;;;;;;;5075087;28;20196;-68
2024/01/27 04:57:18;;;;;;;5.75;2.83;;;;;;;;;;5075059;28;20220;-68
2024/01/27 04:59:46;;;;;;;4.35;3.15;;;;;;;;;;5075007;28;20308;-68
2024/01/27 05:02:12;;;;;;;4.28;2.72;;;;;;;;;;5075023;28;20205;-68
2024/01/27 05:04:38;;;;;;;5.05;2.63;;;;;;;;;;5075060;28;20261;-68
2024/01/27 05:07:05;;;;;;;2.85;2.65;;;;;;;;;;5074789;28;20228;-68
2024/01/27 05:09:31;;;;;;;5.82;3.00;;;;;;;;;;5074524;28;20541;-68
2024/01/27 05:11:57;;;;;;;4.25;2.88;;;;;;;;;;5074977;28;20207;-68
2024/01/27 05:14:23;;;;;;;6.45;3.17;;;;;;;;;;5074504;28;20209;-68
2024/01/27 05:16:51;;;;;;;3.33;2.95;;;;;;;;;;5075746;28;20235;-68
2024/01/27 05:19:17;;;;;;;6.65;3.28;;;;;;;;;;5075257;28;20220;-68
2024/01/27 05:21:44;;;;;;;5.32;3.08;;;;;;;;;;5074723;28;20677;-69
2024/01/27 05:24:09;;;;;;;3.13;2.88;;;;;;;;;;5074280;28;20613;-69
2024/01/27 05:26:35;;;;;;;6.80;3.60;;;;;;;;;;5074379;28;20216;-68
2024/01/27 05:29:01;;;;;;;3.92;3.35;;;;;;;;;;5074438;28;20598;-69
2024/01/27 05:31:28;;;;;;;5.10;2.80;;;;;;;;;;5074626;28;20307;-69
2024/01/27 05:33:55;;;;;;;5.40;2.88;;;;;;;;;;5074511;28;20630;-69
2024/01/27 05:36:22;;;;;;;3.25;2.97;;;;;;;;;;5074454;28;20259;-69
2024/01/27 05:38:48;;;;;;;3.75;2.85;;;;;;;;;;5073844;28;20228;-68
2024/01/27 05:41:14;;;;;;;3.72;3.38;;;;;;;;;;5077572;28;20212;-68
2024/01/27 05:43:40;;;;;;;5.43;3.38;;;;;;;;;;5093586;28;20204;-68
2024/01/27 05:46:09;;;;;;;6.90;3.65;;;;;;;;;;5094655;28;20289;-68
2024/01/27 05:48:35;;;;;;;4.13;3.80;;;;;;;;;;5093781;28;20254;-68
2024/01/27 05:51:03;;;;;;;6.45;4.00;;;;;;;;;;5094169;28;20250;-68
2024/01/27 05:53:29;;;;;;;4.32;3.70;;;;;;;;;;5094324;28;20249;-68
2024/01/27 05:55:56;;;;;;;3.70;3.35;;;;;;;;;;5094400;28;20228;-68
2024/01/27 05:58:22;;;;;;;3.95;3.58;;;;;;;;;;5094030;28;20243;-68
2024/01/27 06:00:49;;;;;;;3.80;3.45;;;;;;;;;;5094161;28;20200;-68
2024/01/27 06:03:16;;;;;;;5.93;3.80;;;;;;;;;;5090292;28;20720;-68
2024/01/27 06:05:43;;;;;;;8.20;3.42;;;;;;;;;;5093236;28;20243;-68
2024/01/27 06:08:10;;;;;;;6.05;4.15;;;;;;;;;;5089000;28;20275;-68
2024/01/27 06:10:37;;;;;;;7.20;4.35;;;;;;;;;;5074599;28;20250;-69
2024/01/27 06:13:03;;;;;;;5.45;4.35;;;;;;;;;;5074166;28;20240;-68
2024/01/27 06:15:29;;;;;;;7.10;4.50;;;;;;;;;;5074086;28;20270;-68
2024/01/27 06:17:56;;;;;;;5.63;4.35;;;;;;;;;;5074319;28;20258;-69
2024/01/27 06:20:22;;;;;;;7.20;4.30;;;;;;;;;;5074113;28;20196;-68
2024/01/27 06:22:48;;;;;;;8.65;4.18;;;;;;;;;;5073995;28;20196;-68
2024/01/27 06:25:16;;;;;;;4.80;3.42;;;;;;;;;;5073499;28;20226;-68
2024/01/27 06:27:41;;;;;;;6.93;4.25;;;;;;;;;;5073910;28;20283;-69
2024/01/27 06:30:09;;;;;;;5.35;3.95;;;;;;;;;;5073620;28;20695;-68
2024/01/27 06:32:36;;;;;;;5.03;3.63;;;;;;;;;;5076984;28;20228;-69
2024/01/27 06:35:04;;;;;;;4.18;3.88;;;;;;;;;;5073361;28;20197;-69
2024/01/27 06:37:30;;;;;;;4.65;3.65;;;;;;;;;;5073255;28;20546;-69
2024/01/27 06:39:56;;;;;;;5.15;3.90;;;;;;;;;;5073246;28;20277;-61
2024/01/27 06:42:24;;;;;;;4.97;3.75;;;;;;;;;;5073207;28;20200;-61
2024/01/27 06:44:50;;;;;;;5.10;3.47;;;;;;;;;;5072806;28;20208;-60
2024/01/27 06:47:17;;;;;;;4.60;3.63;;;;;;;;;;5072705;28;20220;-60
2024/01/27 06:49:43;;;;;;;6.30;4.07;;;;;;;;;;5072698;28;20257;-60
2024/01/27 06:52:09;;;;;;;4.00;3.70;;;;;;;;;;5072571;28;20255;-59
2024/01/27 06:54:36;;;;;;;5.75;3.80;;;;;;;;;;5072600;28;20204;-60
2024/01/27 06:57:02;;;;;;;3.80;3.28;;;;;;;;;;5072434;28;20216;-60
2024/01/27 06:59:30;;;;;;;4.07;3.78;;;;;;;;;;5072246;28;20220;-60
2024/01/27 07:01:56;;;;;;;4.47;3.83;;;;;;;;;;5072318;28;20253;-60
2024/01/27 07:04:23;;;;;;;10.15;4.15;;;;;;;;;;5071922;28;20250;-60
2024/01/27 07:06:49;;;;;;;7.03;4.18;;;;;;;;;;5072250;28;20708;-60
2024/01/27 07:09:16;;;;;;;8.82;5.13;;;;;;;;;;5071914;28;20810;-61
2024/01/27 07:11:42;;;;;;;10.07;5.05;;;;;;;;;;5072221;28;20205;-59
2024/01/27 07:14:09;;;;;;;11.95;5.90;;;;;;;;;;5071863;28;20208;-58
2024/01/27 07:16:36;;;;;;;9.63;5.45;;;;;;;;;;5071978;28;20721;-62
2024/01/27 07:19:02;;;;;;;9.45;5.00;;;;;;;;;;5071725;28;20638;-59
2024/01/27 07:21:31;;;;;;;8.20;5.20;;;;;;;;;;5071963;28;20597;-60
2024/01/27 07:23:57;;;;;;;7.13;4.90;;;;;;;;;;5072219;28;20200;-60
2024/01/27 07:26:23;;;;;;;6.85;5.07;;;;;;;;;;5072035;28;20216;-60
2024/01/27 07:28:49;;;;;;;7.07;4.22;;;;;;;;;;5072093;28;20208;-60
2024/01/27 07:31:17;;;;;;;12.30;4.72;;;;;;;;;;5071910;28;20208;-60
2024/01/27 07:33:45;;;;;;;5.60;4.57;;;;;;;;;;5071676;28;20573;-60
2024/01/27 07:36:11;;;;;;;5.85;4.45;;;;;;;;;;5071744;28;20258;-58
2024/01/27 07:38:38;;;;;;;7.78;5.05;;;;;;;;;;5072028;28;20287;-60
2024/01/27 07:41:05;;;;;;;10.43;4.43;;;;;;;;;;5071783;28;20647;-59
2024/01/27 07:43:31;;;;;;;5.35;4.80;;;;;;;;;;5071577;28;20239;-60
2024/01/27 07:45:57;;;;;;;5.97;5.38;;;;;;;;;;5071759;28;20220;-60
2024/01/27 07:48:24;;;;;;;11.25;5.35;;;;;;;;;;5071709;28;20196;-59
2024/01/27 07:50:51;;;;;;;8.43;5.07;;;;;;;;;;5071601;28;20695;-59
2024/01/27 07:53:18;;;;;;;6.43;5.82;;;;;;;;;;5071576;28;20227;-59
2024/01/27 07:55:44;;;;;;;11.43;6.03;;;;;;;;;;5071900;28;20279;-59
2024/01/27 07:58:10;;;;;;;8.07;4.68;;;;;;;;;;5071518;28;20609;-60
2024/01/27 08:00:37;;;;;;;6.13;5.43;;;;;;;;;;5072016;28;20232;-59
2024/01/27 08:03:03;;;;;;;7.38;5.05;;;;;;;;;;5071651;28;20566;-59
2024/01/27 08:05:29;;;;;;;8.45;5.43;;;;;;;;;;5071799;28;20254;-60
2024/01/27 08:07:57;;;;;;;9.35;5.75;;;;;;;;;;5071961;28;20212;-60
2024/01/27 08:10:23;;;;;;;9.20;5.75;;;;;;;;;;5072021;28;20201;-59
2024/01/27 08:12:49;;;;;;;8.75;5.85;;;;;;;;;;5071751;28;20208;-60
2024/01/27 08:15:16;;;;;;;10.07;6.88;;;;;;;;;;5071368;28;20253;-60
2024/01/27 08:17:42;;;;;;;13.00;7.03;;;;;;;;;;5075460;28;20200;-59
2024/01/27 08:20:09;;;;;;;13.65;6.90;;;;;;;;;;5075685;28;20220;-60
2024/01/27 08:22:35;;;;;;;11.55;6.18;;;;;;;;;;5075727;28;20291;-60
2024/01/27 08:25:03;;;;;;;13.75;7.03;;;;;;;;;;5075874;28;20200;-60
2024/01/27 08:27:29;;;;;;;13.25;7.05;;;;;;;;;;5075433;28;20726;-59
2024/01/27 08:29:56;;;;;;;8.48;7.10;;;;;;;;;;5075300;28;20204;-60
2024/01/27 08:32:22;;;;;;;11.30;6.68;;;;;;;;;;5075423;28;20200;-59
2024/01/27 08:34:48;;;;;;;13.43;6.65;;;;;;;;;;5075320;28;20612;-59
2024/01/27 08:37:15;;;;;;;9.18;6.47;;;;;;;;;;5075317;28;20592;-60
2024/01/27 08:39:41;;;;;;;14.35;6.90;;;;;;;;;;5075203;28;20216;-59
2024/01/27 08:42:09;;;;;;;11.07;6.45;;;;;;;;;;5075204;28;20296;-60
2024/01/27 08:44:35;;;;;;;12.00;6.10;;;;;;;;;;5075422;28;20207;-61
2024/01/27 08:47:01;;;;;;;8.55;6.30;;;;;;;;;;5075211;28;20270;-60
2024/01/27 08:49:28;;;;;;;8.90;6.40;;;;;;;;;;5074979;28;20197;-58
2024/01/27 08:51:54;;;;;;;16.63;6.55;;;;;;;;;;5075262;28;20246;-61
2024/01/27 08:54:21;;;;;;;8.27;5.93;;;;;;;;;;5075073;28;20204;-61
2024/01/27 08:56:47;;;;;;;12.48;6.07;;;;;;;;;;5075206;28;20221;-61
2024/01/27 08:59:15;;;;;;;8.18;6.05;;;;;;;;;;5075115;28;20261;-61
2024/01/27 09:01:41;;;;;;;7.65;5.57;;;;;;;;;;5075456;28;20205;-61
2024/01/27 09:04:07;;;;;;;11.57;7.43;;;;;;;;;;5075577;28;20208;-61
2024/01/27 09:06:33;;;;;;;8.50;6.60;;;;;;;;;;5075170;28;20315;-61
2024/01/27 09:09:00;;;;;;;8.70;6.75;;;;;;;;;;5074980;28;20207;-60
2024/01/27 09:11:30;;;;;;;9.30;6.75;;;;;;;;;;5075046;28;20212;-61
2024/01/27 09:13:56;;;;;;;11.88;5.65;;;;;;;;;;5074734;28;20212;-60
2024/01/27 09:16:23;;;;;;;8.18;5.53;;;;;;;;;;5074805;28;20220;-62
2024/01/27 09:18:50;;;;;;;7.78;5.63;;;;;;;;;;5074818;28;20204;-62
2024/01/27 09:21:20;;;;;;;10.20;5.90;;;;;;;;;;5074961;28;20311;-61
2024/01/27 09:23:46;;;;;;;7.28;6.00;;;;;;;;;;5054889;28;20296;-62
2024/01/27 09:26:13;;;;;;;8.05;5.65;;;;;;;;;;5052272;28;20225;-61
2024/01/27 09:28:43;;;;;;;7.70;5.35;;;;;;;;;;5051022;28;20208;-62
2024/01/27 09:31:09;;;;;;;8.25;6.22;;;;;;;;;;5051194;28;20205;-64
2024/01/27 09:33:37;;;;;;;9.00;5.68;;;;;;;;;;5058747;28;20201;-63
2024/01/27 09:36:04;;;;;;;7.35;5.07;;;;;;;;;;5051346;28;20849;-63
2024/01/27 09:38:30;;;;;;;7.88;4.88;;;;;;;;;;5051495;28;20292;-62
2024/01/27 09:40:56;;;;;;;9.60;4.82;;;;;;;;;;5054216;28;20232;-61
2024/01/27 09:43:25;;;;;;;7.78;4.68;;;;;;;;;;5057196;28;20274;-60
2024/01/27 09:45:51;;;;;;;7.00;4.72;;;;;;;;;;5065141;28;20217;-60
2024/01/27 09:48:18;;;;;;;5.65;4.72;;;;;;;;;;5074291;28;20246;-60
2024/01/27 09:50:46;;;;;;;5.88;4.90;;;;;;;;;;5074389;28;20200;-61
2024/01/27 09:53:12;;;;;;;8.38;5.40;;;;;;;;;;5074302;28;20258;-60
2024/01/27 09:55:38;;;;;;;8.52;5.45;;;;;;;;;;5074272;28;20278;-61
2024/01/27 09:58:04;;;;;;;10.57;5.70;;;;;;;;;;5074328;28;20204;-59
2024/01/27 10:00:31;;;;;;;13.23;5.38;;;;;;;;;;5073730;28;20718;-61
2024/01/27 10:02:57;;;;;;;8.10;5.80;;;;;;;;;;5073331;28;20196;-59
2024/01/27 10:05:24;;;;;;;8.57;4.70;;;;;;;;;;5073430;28;20581;-62
2024/01/27 10:07:52;;;;;;;8.10;5.20;;;;;;;;;;5073463;28;20201;-60
2024/01/27 10:10:18;;;;;;;8.20;5.53;;;;;;;;;;5073595;28;20234;-61
2024/01/27 10:12:45;;;;;;;7.72;5.32;;;;;;;;;;5073555;28;20254;-61
2024/01/27 10:15:21;;;;;;;9.48;5.00;;;;;;;;;;5073314;28;20209;-61
2024/01/27 10:17:47;;;;;;;7.75;4.70;;;;;;;;;;5073339;28;20210;-61
2024/01/27 10:20:15;;;;;;;5.47;4.32;;;;;;;;;;5073451;28;20246;-61
2024/01/27 10:22:41;;;;;;;8.10;4.47;;;;;;;;;;5073463;28;20245;-61
2024/01/27 10:25:09;;;;;;;5.45;4.43;;;;;;;;;;5073471;28;20626;-61
2024/01/27 10:27:36;;;;;;;4.57;4.18;;;;;;;;;;5073482;28;20287;-61
2024/01/27 10:30:02;;;;;;;7.13;4.32;;;;;;;;;;5073192;28;20208;-61
2024/01/27 10:32:29;;;;;;;10.40;4.88;;;;;;;;;;5073561;28;20283;-61
2024/01/27 10:35:02;;;;;;;10.05;5.30;;;;;;;;;;5073087;28;20668;-61
2024/01/27 10:37:28;;;;;;;6.43;4.55;;;;;;;;;;5073313;28;20257;-61
2024/01/27 10:40:00;;;;;;;6.47;4.22;;;;;;;;;;5072080;28;20223;-61
2024/01/27 10:42:28;;;;;;;7.95;4.32;;;;;;;;;;5073321;28;20661;-61
2024/01/27 10:44:55;;;;;;;9.80;4.55;;;;;;;;;;5072750;28;20661;-61
2024/01/27 10:47:23;;;;;;;8.48;5.07;;;;;;;;;;5073341;28;20224;-60
2024/01/27 10:49:50;;;;;;;12.77;6.63;;;;;;;;;;5072969;28;20235;-61
2024/01/27 10:52:20;;;;;;;7.38;5.07;;;;;;;;;;5072750;28;20207;-60
2024/01/27 10:54:46;;;;;;;5.95;4.20;;;;;;;;;;5072615;28;20688;-60
2024/01/27 10:57:13;;;;;;;9.00;4.47;;;;;;;;;;5072537;28;20225;-59
2024/01/27 10:59:42;;;;;;;8.27;4.30;;;;;;;;;;5072277;28;20742;-60
2024/01/27 11:02:13;;;;;;;5.30;4.00;;;;;;;;;;5072600;28;20201;-60
2024/01/27 11:04:40;;;;;;;6.15;4.20;;;;;;;;;;5072646;28;20245;-60
2024/01/27 11:07:07;;;;;;;8.25;4.03;;;;;;;;;;5072523;28;20220;-61
2024/01/27 11:09:33;;;;;;;8.45;3.85;;;;;;;;;;5072439;28;20304;-61
2024/01/27 11:12:00;;;;;;;4.40;3.40;;;;;;;;;;5072277;28;20208;-61
2024/01/27 11:14:26;;;;;;;10.40;3.40;;;;;;;;;;5072249;28;20224;-61
2024/01/27 11:16:57;;;;;;;10.57;3.50;;;;;;;;;;5072471;28;20242;-62
2024/01/27 11:19:23;;;;;;;7.53;3.58;;;;;;;;;;5072196;28;20204;-60
2024/01/27 11:21:59;;;;;;;10.55;4.20;;;;;;;;;;5072209;28;20216;-60
2024/01/27 11:24:26;;;;;;;8.07;4.15;;;;;;;;;;5072006;28;20249;-60
2024/01/27 11:27:00;;;;;;;7.80;3.55;;;;;;;;;;5072294;28;20253;-63
2024/01/27 11:29:27;;;;;;;7.25;4.43;;;;;;;;;;5072162;28;20203;-61
2024/01/27 11:31:55;;;;;;;11.75;4.05;;;;;;;;;;5072259;28;20200;-61
2024/01/27 11:34:23;;;;;;;13.77;4.80;;;;;;;;;;5071874;28;20672;-61
2024/01/27 11:36:49;;;;;;;12.07;4.30;;;;;;;;;;5072039;28;20220;-62
2024/01/27 11:39:25;;;;;;;9.45;4.22;;;;;;;;;;5071868;28;20204;-61
2024/01/27 11:41:51;;;;;;;10.50;4.45;;;;;;;;;;5072009;28;20227;-61
2024/01/27 11:44:18;;;;;;;10.05;4.35;;;;;;;;;;5071922;28;20200;-61
2024/01/27 11:46:45;;;;;;;12.18;4.68;;;;;;;;;;5072051;28;20228;-61
2024/01/27 11:49:15;;;;;;;8.48;4.38;;;;;;;;;;5072146;28;20207;-61
2024/01/27 11:51:42;;;;;;;7.28;3.70;;;;;;;;;;5071572;28;20596;-61
2024/01/27 11:54:09;;;;;;;12.27;4.07;;;;;;;;;;5071858;28;20207;-61
2024/01/27 11:56:35;;;;;;;9.48;4.80;;;;;;;;;;5071866;28;20220;-61
2024/01/27 11:59:01;;;;;;;9.80;4.05;;;;;;;;;;5072037;28;20555;-61
2024/01/27 12:01:27;;;;;;;11.80;3.08;;;;;;;;;;5071714;28;20220;-61
2024/01/27 12:03:54;;;;;;;9.45;2.88;;;;;;;;;;5071634;28;20300;-61
2024/01/27 12:06:20;;;;;;;8.18;2.95;;;;;;;;;;5071556;28;20228;-61
2024/01/27 12:08:48;;;;;;;6.55;2.70;;;;;;;;;;5071733;28;20204;-61
2024/01/27 12:11:15;;;;;;;8.90;3.60;;;;;;;;;;5071998;28;20208;-61
2024/01/27 12:13:41;;;;;;;9.75;4.03;;;;;;;;;;5071533;28;20299;-61
2024/01/27 12:16:08;;;;;;;12.23;4.47;;;;;;;;;;5071553;28;20225;-61
2024/01/27 12:18:35;;;;;;;10.10;3.05;;;;;;;;;;5071472;28;20196;-61
2024/01/27 12:21:01;;;;;;;5.40;2.60;;;;;;;;;;5071497;28;20711;-61
2024/01/27 12:23:27;;;;;;;9.88;3.08;;;;;;;;;;5071668;28;20246;-61
2024/01/27 12:25:55;;;;;;;9.02;3.05;;;;;;;;;;5071576;28;20224;-61
2024/01/27 12:28:23;;;;;;;5.80;2.88;;;;;;;;;;5071473;28;20209;-61
2024/01/27 12:30:49;;;;;;;19.48;5.60;;;;;;;;;;5071611;28;20475;-61
2024/01/27 12:33:19;;;;;;;7.72;3.00;;;;;;;;;;5071221;28;20215;-61
2024/01/27 12:35:45;;;;;;;6.43;2.90;;;;;;;;;;5071597;28;20315;-61
2024/01/27 12:38:12;;;;;;;8.70;3.38;;;;;;;;;;5071352;28;20556;-61
2024/01/27 12:40:38;;;;;;;10.63;3.90;;;;;;;;;;5071232;28;20212;-61
2024/01/27 12:43:06;;;;;;;6.93;3.05;;;;;;;;;;5071175;28;20708;-61
2024/01/27 12:45:34;;;;;;;9.50;3.08;;;;;;;;;;5071626;28;20773;-61
2024/01/27 12:48:02;;;;;;;8.05;3.35;;;;;;;;;;5071521;28;20287;-61
2024/01/27 12:50:28;;;;;;;6.82;2.58;;;;;;;;;;5071270;28;20588;-61
2024/01/27 12:52:55;;;;;;;11.77;3.42;;;;;;;;;;5071410;28;20618;-61
2024/01/27 12:55:21;;;;;;;7.75;2.90;;;;;;;;;;5071578;28;20235;-61
2024/01/27 12:57:48;;;;;;;10.50;3.92;;;;;;;;;;5071305;28;20200;-61
2024/01/27 13:00:16;;;;;;;12.60;3.60;;;;;;;;;;5070911;28;20204;-61
2024/01/27 13:02:43;;;;;;;9.00;2.78;;;;;;;;;;5071209;28;20213;-61
2024/01/27 13:05:10;;;;;;;4.88;2.67;;;;;;;;;;5075005;28;20250;-61
2024/01/27 13:07:36;;;;;;;5.55;2.80;;;;;;;;;;5074999;28;20287;-61
2024/01/27 13:10:02;;;;;;;13.23;2.85;;;;;;;;;;5074696;28;20216;-61
2024/01/27 13:12:29;;;;;;;5.95;2.33;;;;;;;;;;5074545;28;20200;-61
2024/01/27 13:14:56;;;;;;;6.75;2.38;;;;;;;;;;5074563;28;20217;-61
2024/01/27 13:17:23;;;;;;;3.28;2.03;;;;;;;;;;5074610;28;20311;-61
2024/01/27 13:19:50;;;;;;;6.70;2.70;;;;;;;;;;5074640;28;20200;-61
2024/01/27 13:22:17;;;;;;;6.43;2.42;;;;;;;;;;5074458;28;20220;-61
2024/01/27 13:24:43;;;;;;;6.78;1.95;;;;;;;;;;5074543;28;20287;-61
2024/01/27 13:27:09;;;;;;;9.45;2.42;;;;;;;;;;5074363;28;20220;-62
2024/01/27 13:29:35;;;;;;;7.75;2.33;;;;;;;;;;5074381;28;20250;-62
2024/01/27 13:32:02;;;;;;;4.55;2.40;;;;;;;;;;5074822;28;20200;-62
2024/01/27 13:34:30;;;;;;;5.70;2.33;;;;;;;;;;5074366;28;20688;-62
2024/01/27 13:36:58;;;;;;;4.97;2.13;;;;;;;;;;5074570;28;20220;-62
2024/01/27 13:39:24;;;;;;;5.60;2.50;;;;;;;;;;5074630;28;20200;-62
2024/01/27 13:41:51;;;;;;;5.18;2.10;;;;;;;;;;5074526;28;20624;-62
2024/01/27 13:44:17;;;;;;;6.15;2.35;;;;;;;;;;5074217;28;20273;-62
2024/01/27 13:46:43;;;;;;;7.80;2.47;;;;;;;;;;5074443;28;20224;-61
2024/01/27 13:49:09;;;;;;;6.45;1.83;;;;;;;;;;5074099;28;20205;-62
2024/01/27 13:51:37;;;;;;;8.50;2.53;;;;;;;;;;5074129;28;20200;-61
2024/01/27 13:54:03;;;;;;;6.15;2.67;;;;;;;;;;5073956;28;20204;-61
2024/01/27 13:56:32;;;;;;;9.18;3.10;;;;;;;;;;5073790;28;20270;-61
2024/01/27 13:58:58;;;;;;;5.47;2.70;;;;;;;;;;5074027;28;20296;-61
2024/01/27 14:01:25;;;;;;;6.50;2.42;;;;;;;;;;5074334;28;20224;-61
2024/01/27 14:03:51;;;;;;;8.98;2.80;;;;;;;;;;5073872;28;20435;-61
2024/01/27 14:06:17;;;;;;;6.20;2.47;;;;;;;;;;5073560;28;20732;-61
2024/01/27 14:08:45;;;;;;;7.05;2.65;;;;;;;;;;5073508;28;20200;-61
2024/01/27 14:11:11;;;;;;;6.78;2.25;;;;;;;;;;5074002;28;20197;-61
2024/01/27 14:13:37;;;;;;;4.70;2.28;;;;;;;;;;5073201;28;20672;-61
2024/01/27 14:16:04;;;;;;;5.05;2.80;;;;;;;;;;5073664;28;20221;-61
2024/01/27 14:18:31;;;;;;;8.32;3.33;;;;;;;;;;5073245;28;20557;-61
2024/01/27 14:20:57;;;;;;;6.82;2.97;;;;;;;;;;5073488;28;20252;-61
2024/01/27 14:23:23;;;;;;;5.82;2.35;;;;;;;;;;5073613;28;20200;-61
2024/01/27 14:25:51;;;;;;;8.23;2.58;;;;;;;;;;5073131;28;20323;-61
2024/01/27 14:28:17;;;;;;;7.78;2.85;;;;;;;;;;5073333;28;20200;-61
2024/01/27 14:30:44;;;;;;;7.95;2.50;;;;;;;;;;5073294;28;20665;-61
2024/01/27 14:33:11;;;;;;;5.03;2.88;;;;;;;;;;5073201;28;20311;-61
2024/01/27 14:35:37;;;;;;;6.35;3.17;;;;;;;;;;5073164;28;20220;-61
2024/01/27 14:38:04;;;;;;;6.22;2.60;;;;;;;;;;5073109;28;20673;-61